sensor_id;sensor_type;location;lat;lon;timestamp;temperature;humidity
69082;DHT22;69029;51.986;5.760;2023-05-10T00:01:48;14.40;99.90
69082;DHT22;69029;51.986;5.760;2023-05-10T00:04:15;14.40;99.90
69082;DHT22;69029;51.986;5.760;2023-05-10T00:06:41;14.40;99.90
69082;DHT22;69029;51.986;5.760;2023-05-10T00:09:07;14.40;99.90
69082;DHT22;69029;51.986;5.760;2023-05-10T00:11:33;14.40;99.90
69082;DHT22;69029;51.986;5.760;2023-05-10T00:13:59;14.40;99.90
69082;DHT22;69029;51.986;5.760;2023-05-10T00:16:25;14.40;99.90
69082;DHT22;69029;51.986;5.760;2023-05-10T00:18:50;14.40;99.90
69082;DHT22;69029;51.986;5.760;2023-05-10T00:21:17;14.40;99.90
69082;DHT22;69029;51.986;5.760;2023-05-10T00:23:43;14.40;99.90
69082;DHT22;69029;51.986;5.760;2023-05-10T00:26:08;14.40;99.90
69082;DHT22;69029;51.986;5.760;2023-05-10T00:28:34;14.40;99.90
69082;DHT22;69029;51.986;5.760;2023-05-10T00:30:59;14.40;99.90
69082;DHT22;69029;51.986;5.760;2023-05-10T00:33:25;14.40;99.90
69082;DHT22;69029;51.986;5.760;2023-05-10T00:35:51;14.40;99.90
69082;DHT22;69029;51.986;5.760;2023-05-10T00:38:17;14.40;99.90
69082;DHT22;69029;51.986;5.760;2023-05-10T00:40:43;14.40;99.90
69082;DHT22;69029;51.986;5.760;2023-05-10T00:43:09;14.40;99.90
69082;DHT22;69029;51.986;5.760;2023-05-10T00:45:35;14.40;99.90
69082;DHT22;69029;51.986;5.760;2023-05-10T00:48:03;14.30;99.90
69082;DHT22;69029;51.986;5.760;2023-05-10T00:50:30;14.30;99.90
69082;DHT22;69029;51.986;5.760;2023-05-10T00:52:58;14.40;99.90
69082;DHT22;69029;51.986;5.760;2023-05-10T00:55:25;14.40;99.90
69082;DHT22;69029;51.986;5.760;2023-05-10T00:57:52;14.40;99.90
69082;DHT22;69029;51.986;5.760;2023-05-10T01:00:20;14.40;99.90
69082;DHT22;69029;51.986;5.760;2023-05-10T01:02:46;14.40;99.90
69082;DHT22;69029;51.986;5.760;2023-05-10T01:05:15;14.40;99.90
69082;DHT22;69029;51.986;5.760;2023-05-10T01:07:41;14.40;99.90
69082;DHT22;69029;51.986;5.760;2023-05-10T01:10:07;14.40;99.90
69082;DHT22;69029;51.986;5.760;2023-05-10T01:12:39;14.40;99.90
69082;DHT22;69029;51.986;5.760;2023-05-10T01:15:07;14.40;99.90
69082;DHT22;69029;51.986;5.760;2023-05-10T01:17:35;14.40;99.90
69082;DHT22;69029;51.986;5.760;2023-05-10T01:20:02;14.40;99.90
69082;DHT22;69029;51.986;5.760;2023-05-10T01:34:18;14.50;99.90
69082;DHT22;69029;51.986;5.760;2023-05-10T01:36:51;14.50;99.90
69082;DHT22;69029;51.986;5.760;2023-05-10T01:39:32;14.50;99.90
69082;DHT22;69029;51.986;5.760;2023-05-10T01:42:09;14.50;99.90
69082;DHT22;69029;51.986;5.760;2023-05-10T01:47:40;14.60;99.90
69082;DHT22;69029;51.986;5.760;2023-05-10T01:50:10;14.60;99.90
69082;DHT22;69029;51.986;5.760;2023-05-10T01:52:44;14.60;99.90
69082;DHT22;69029;51.986;5.760;2023-05-10T01:55:15;14.60;99.90
69082;DHT22;69029;51.986;5.760;2023-05-10T01:57:43;14.50;99.90
69082;DHT22;69029;51.986;5.760;2023-05-10T02:00:10;14.50;99.90
69082;DHT22;69029;51.986;5.760;2023-05-10T02:02:41;14.60;99.90
69082;DHT22;69029;51.986;5.760;2023-05-10T02:05:08;14.50;99.90
69082;DHT22;69029;51.986;5.760;2023-05-10T02:07:36;14.50;99.90
69082;DHT22;69029;51.986;5.760;2023-05-10T02:10:04;14.60;99.90
69082;DHT22;69029;51.986;5.760;2023-05-10T02:12:33;14.50;99.90
69082;DHT22;69029;51.986;5.760;2023-05-10T02:15:02;14.50;99.90
69082;DHT22;69029;51.986;5.760;2023-05-10T02:17:31;14.50;99.90
69082;DHT22;69029;51.986;5.760;2023-05-10T02:19:59;14.50;99.90
69082;DHT22;69029;51.986;5.760;2023-05-10T02:22:27;14.50;99.90
69082;DHT22;69029;51.986;5.760;2023-05-10T02:24:54;14.50;99.90
69082;DHT22;69029;51.986;5.760;2023-05-10T02:27:22;14.50;99.90
69082;DHT22;69029;51.986;5.760;2023-05-10T02:29:49;14.50;99.90
69082;DHT22;69029;51.986;5.760;2023-05-10T02:32:16;14.50;99.90
69082;DHT22;69029;51.986;5.760;2023-05-10T02:34:43;14.50;99.90
69082;DHT22;69029;51.986;5.760;2023-05-10T02:37:14;14.60;99.90
69082;DHT22;69029;51.986;5.760;2023-05-10T02:39:41;14.60;99.90
69082;DHT22;69029;51.986;5.760;2023-05-10T02:42:16;14.50;99.90
69082;DHT22;69029;51.986;5.760;2023-05-10T02:44:43;14.50;99.90
69082;DHT22;69029;51.986;5.760;2023-05-10T02:47:11;14.50;99.90
69082;DHT22;69029;51.986;5.760;2023-05-10T02:49:36;14.50;99.90
69082;DHT22;69029;51.986;5.760;2023-05-10T02:52:05;14.40;99.90
69082;DHT22;69029;51.986;5.760;2023-05-10T02:54:34;14.40;99.90
69082;DHT22;69029;51.986;5.760;2023-05-10T02:57:04;14.40;99.90
69082;DHT22;69029;51.986;5.760;2023-05-10T02:59:31;14.40;99.90
69082;DHT22;69029;51.986;5.760;2023-05-10T03:02:01;14.50;99.90
69082;DHT22;69029;51.986;5.760;2023-05-10T03:04:27;14.50;99.90
69082;DHT22;69029;51.986;5.760;2023-05-10T03:06:52;14.40;99.90
69082;DHT22;69029;51.986;5.760;2023-05-10T03:09:19;14.40;99.90
69082;DHT22;69029;51.986;5.760;2023-05-10T03:12:18;14.40;99.90
69082;DHT22;69029;51.986;5.760;2023-05-10T03:21:11;14.30;99.90
69082;DHT22;69029;51.986;5.760;2023-05-10T03:23:43;14.40;99.90
69082;DHT22;69029;51.986;5.760;2023-05-10T03:26:13;14.40;99.90
69082;DHT22;69029;51.986;5.760;2023-05-10T03:28:41;14.30;99.90
69082;DHT22;69029;51.986;5.760;2023-05-10T03:31:07;14.30;99.90
69082;DHT22;69029;51.986;5.760;2023-05-10T03:33:33;14.30;99.90
69082;DHT22;69029;51.986;5.760;2023-05-10T03:35:58;14.20;99.90
69082;DHT22;69029;51.986;5.760;2023-05-10T03:38:24;14.20;99.90
69082;DHT22;69029;51.986;5.760;2023-05-10T03:40:50;14.20;99.90
69082;DHT22;69029;51.986;5.760;2023-05-10T03:43:15;14.20;99.90
69082;DHT22;69029;51.986;5.760;2023-05-10T03:45:41;14.20;99.90
69082;DHT22;69029;51.986;5.760;2023-05-10T03:48:06;14.20;99.90
69082;DHT22;69029;51.986;5.760;2023-05-10T03:50:32;14.20;99.90
69082;DHT22;69029;51.986;5.760;2023-05-10T03:52:57;14.20;99.90
69082;DHT22;69029;51.986;5.760;2023-05-10T03:55:23;14.30;99.90
69082;DHT22;69029;51.986;5.760;2023-05-10T03:57:49;14.20;99.90
69082;DHT22;69029;51.986;5.760;2023-05-10T04:00:15;14.20;99.90
69082;DHT22;69029;51.986;5.760;2023-05-10T04:02:40;14.20;99.90
69082;DHT22;69029;51.986;5.760;2023-05-10T04:05:06;14.30;99.90
69082;DHT22;69029;51.986;5.760;2023-05-10T04:07:32;14.30;99.90
69082;DHT22;69029;51.986;5.760;2023-05-10T04:09:57;14.20;99.90
69082;DHT22;69029;51.986;5.760;2023-05-10T04:12:23;14.20;99.90
69082;DHT22;69029;51.986;5.760;2023-05-10T04:14:49;14.20;99.90
69082;DHT22;69029;51.986;5.760;2023-05-10T04:17:14;14.10;99.90
69082;DHT22;69029;51.986;5.760;2023-05-10T04:19:40;14.10;99.90
69082;DHT22;69029;51.986;5.760;2023-05-10T04:22:06;14.20;99.90
69082;DHT22;69029;51.986;5.760;2023-05-10T04:24:31;14.20;99.90
69082;DHT22;69029;51.986;5.760;2023-05-10T04:26:57;14.10;99.90
69082;DHT22;69029;51.986;5.760;2023-05-10T04:29:22;14.20;99.90
69082;DHT22;69029;51.986;5.760;2023-05-10T04:31:48;14.20;99.90
69082;DHT22;69029;51.986;5.760;2023-05-10T04:34:14;14.20;99.90
69082;DHT22;69029;51.986;5.760;2023-05-10T04:36:39;14.20;99.90
69082;DHT22;69029;51.986;5.760;2023-05-10T04:39:05;14.10;99.90
69082;DHT22;69029;51.986;5.760;2023-05-10T04:41:31;14.10;99.90
69082;DHT22;69029;51.986;5.760;2023-05-10T04:43:58;14.20;99.90
69082;DHT22;69029;51.986;5.760;2023-05-10T04:46:23;14.20;99.90
69082;DHT22;69029;51.986;5.760;2023-05-10T04:48:49;14.20;99.90
69082;DHT22;69029;51.986;5.760;2023-05-10T04:51:14;14.20;99.90
69082;DHT22;69029;51.986;5.760;2023-05-10T04:53:40;14.20;99.90
69082;DHT22;69029;51.986;5.760;2023-05-10T04:56:06;14.10;99.90
69082;DHT22;69029;51.986;5.760;2023-05-10T04:58:32;14.10;99.90
69082;DHT22;69029;51.986;5.760;2023-05-10T05:01:05;14.10;99.90
69082;DHT22;69029;51.986;5.760;2023-05-10T05:03:30;14.10;99.90
69082;DHT22;69029;51.986;5.760;2023-05-10T05:05:56;14.10;99.90
69082;DHT22;69029;51.986;5.760;2023-05-10T05:08:22;14.20;99.90
69082;DHT22;69029;51.986;5.760;2023-05-10T05:10:48;14.20;99.90
69082;DHT22;69029;51.986;5.760;2023-05-10T05:13:15;14.20;99.90
69082;DHT22;69029;51.986;5.760;2023-05-10T05:15:41;14.20;99.90
69082;DHT22;69029;51.986;5.760;2023-05-10T05:18:06;14.20;99.90
69082;DHT22;69029;51.986;5.760;2023-05-10T05:20:33;14.40;99.90
69082;DHT22;69029;51.986;5.760;2023-05-10T05:22:59;14.40;99.90
69082;DHT22;69029;51.986;5.760;2023-05-10T05:25:25;14.50;99.90
69082;DHT22;69029;51.986;5.760;2023-05-10T05:27:51;14.40;99.90
69082;DHT22;69029;51.986;5.760;2023-05-10T05:30:16;14.50;99.90
69082;DHT22;69029;51.986;5.760;2023-05-10T05:32:42;14.40;99.90
69082;DHT22;69029;51.986;5.760;2023-05-10T05:35:08;14.40;99.90
69082;DHT22;69029;51.986;5.760;2023-05-10T05:37:33;14.40;99.90
69082;DHT22;69029;51.986;5.760;2023-05-10T05:40:00;14.40;99.90
69082;DHT22;69029;51.986;5.760;2023-05-10T05:42:27;14.40;99.90
69082;DHT22;69029;51.986;5.760;2023-05-10T05:44:52;14.40;99.90
69082;DHT22;69029;51.986;5.760;2023-05-10T05:47:18;14.50;99.90
69082;DHT22;69029;51.986;5.760;2023-05-10T05:49:46;14.50;99.90
69082;DHT22;69029;51.986;5.760;2023-05-10T05:52:12;14.50;99.90
69082;DHT22;69029;51.986;5.760;2023-05-10T05:54:38;14.50;99.90
69082;DHT22;69029;51.986;5.760;2023-05-10T05:57:03;14.40;99.90
69082;DHT22;69029;51.986;5.760;2023-05-10T05:59:29;14.40;99.90
69082;DHT22;69029;51.986;5.760;2023-05-10T06:01:55;14.50;99.90
69082;DHT22;69029;51.986;5.760;2023-05-10T06:04:20;14.50;99.90
69082;DHT22;69029;51.986;5.760;2023-05-10T06:06:46;14.50;99.90
69082;DHT22;69029;51.986;5.760;2023-05-10T06:09:12;14.50;99.90
69082;DHT22;69029;51.986;5.760;2023-05-10T06:11:37;14.60;99.90
69082;DHT22;69029;51.986;5.760;2023-05-10T06:14:04;14.60;99.90
69082;DHT22;69029;51.986;5.760;2023-05-10T06:16:30;14.60;99.90
69082;DHT22;69029;51.986;5.760;2023-05-10T06:18:56;14.60;99.90
69082;DHT22;69029;51.986;5.760;2023-05-10T06:21:22;14.60;99.90
69082;DHT22;69029;51.986;5.760;2023-05-10T06:23:47;14.60;99.90
69082;DHT22;69029;51.986;5.760;2023-05-10T06:26:13;14.60;99.90
69082;DHT22;69029;51.986;5.760;2023-05-10T06:28:39;14.60;99.90
69082;DHT22;69029;51.986;5.760;2023-05-10T06:31:05;14.60;99.90
69082;DHT22;69029;51.986;5.760;2023-05-10T06:33:32;14.60;99.90
69082;DHT22;69029;51.986;5.760;2023-05-10T06:35:58;14.60;99.90
69082;DHT22;69029;51.986;5.760;2023-05-10T06:38:23;14.60;99.90
69082;DHT22;69029;51.986;5.760;2023-05-10T06:40:49;14.70;99.90
69082;DHT22;69029;51.986;5.760;2023-05-10T06:43:15;14.80;99.90
69082;DHT22;69029;51.986;5.760;2023-05-10T06:45:40;14.70;99.90
69082;DHT22;69029;51.986;5.760;2023-05-10T06:48:06;14.60;99.90
69082;DHT22;69029;51.986;5.760;2023-05-10T06:50:32;14.70;99.90
69082;DHT22;69029;51.986;5.760;2023-05-10T06:52:58;14.70;99.90
69082;DHT22;69029;51.986;5.760;2023-05-10T06:55:24;14.80;99.90
69082;DHT22;69029;51.986;5.760;2023-05-10T06:57:50;14.90;99.90
69082;DHT22;69029;51.986;5.760;2023-05-10T07:00:16;14.90;99.90
69082;DHT22;69029;51.986;5.760;2023-05-10T07:02:42;14.80;99.90
69082;DHT22;69029;51.986;5.760;2023-05-10T07:05:08;14.90;99.90
69082;DHT22;69029;51.986;5.760;2023-05-10T07:07:34;14.80;99.90
69082;DHT22;69029;51.986;5.760;2023-05-10T07:09:59;14.80;99.90
69082;DHT22;69029;51.986;5.760;2023-05-10T07:12:25;14.70;99.90
69082;DHT22;69029;51.986;5.760;2023-05-10T07:14:51;14.70;99.90
69082;DHT22;69029;51.986;5.760;2023-05-10T07:17:17;14.80;99.90
69082;DHT22;69029;51.986;5.760;2023-05-10T07:19:43;14.80;99.90
69082;DHT22;69029;51.986;5.760;2023-05-10T07:22:09;14.90;99.90
69082;DHT22;69029;51.986;5.760;2023-05-10T07:24:34;14.80;99.90
69082;DHT22;69029;51.986;5.760;2023-05-10T07:27:00;14.90;99.90
69082;DHT22;69029;51.986;5.760;2023-05-10T07:29:26;14.90;99.90
69082;DHT22;69029;51.986;5.760;2023-05-10T07:31:51;14.90;99.90
69082;DHT22;69029;51.986;5.760;2023-05-10T07:34:17;15.00;99.90
69082;DHT22;69029;51.986;5.760;2023-05-10T07:36:43;15.10;99.90
69082;DHT22;69029;51.986;5.760;2023-05-10T07:39:08;15.10;99.90
69082;DHT22;69029;51.986;5.760;2023-05-10T07:41:34;15.10;99.90
69082;DHT22;69029;51.986;5.760;2023-05-10T07:44:00;15.20;99.90
69082;DHT22;69029;51.986;5.760;2023-05-10T07:46:26;15.20;99.90
69082;DHT22;69029;51.986;5.760;2023-05-10T07:48:51;15.30;99.90
69082;DHT22;69029;51.986;5.760;2023-05-10T07:51:17;15.40;99.90
69082;DHT22;69029;51.986;5.760;2023-05-10T07:53:42;15.50;99.90
69082;DHT22;69029;51.986;5.760;2023-05-10T07:56:28;15.50;99.90
69082;DHT22;69029;51.986;5.760;2023-05-10T07:58:58;15.60;99.90
69082;DHT22;69029;51.986;5.760;2023-05-10T08:01:25;15.70;99.90
69082;DHT22;69029;51.986;5.760;2023-05-10T08:03:51;15.90;99.90
69082;DHT22;69029;51.986;5.760;2023-05-10T08:06:18;16.00;99.90
69082;DHT22;69029;51.986;5.760;2023-05-10T08:08:46;16.10;99.90
69082;DHT22;69029;51.986;5.760;2023-05-10T08:11:15;16.10;99.90
69082;DHT22;69029;51.986;5.760;2023-05-10T08:13:41;15.90;99.90
69082;DHT22;69029;51.986;5.760;2023-05-10T08:16:07;15.80;99.90
69082;DHT22;69029;51.986;5.760;2023-05-10T08:18:32;15.70;99.90
69082;DHT22;69029;51.986;5.760;2023-05-10T08:20:58;15.70;99.90
69082;DHT22;69029;51.986;5.760;2023-05-10T08:23:24;15.70;99.90
69082;DHT22;69029;51.986;5.760;2023-05-10T08:25:49;15.70;99.90
69082;DHT22;69029;51.986;5.760;2023-05-10T08:28:15;15.60;99.90
69082;DHT22;69029;51.986;5.760;2023-05-10T08:30:40;15.80;99.90
69082;DHT22;69029;51.986;5.760;2023-05-10T08:33:06;15.70;99.90
69082;DHT22;69029;51.986;5.760;2023-05-10T08:35:31;15.80;99.90
69082;DHT22;69029;51.986;5.760;2023-05-10T08:37:58;15.80;98.40
69082;DHT22;69029;51.986;5.760;2023-05-10T08:40:24;15.90;98.80
69082;DHT22;69029;51.986;5.760;2023-05-10T08:43:04;15.90;99.80
69082;DHT22;69029;51.986;5.760;2023-05-10T08:45:33;15.90;99.90
69082;DHT22;69029;51.986;5.760;2023-05-10T08:48:02;16.10;99.90
69082;DHT22;69029;51.986;5.760;2023-05-10T08:50:30;16.00;98.80
69082;DHT22;69029;51.986;5.760;2023-05-10T08:52:59;16.10;97.90
69082;DHT22;69029;51.986;5.760;2023-05-10T08:55:25;16.30;99.00
69082;DHT22;69029;51.986;5.760;2023-05-10T08:57:51;16.40;98.10
69082;DHT22;69029;51.986;5.760;2023-05-10T09:00:18;16.60;96.90
69082;DHT22;69029;51.986;5.760;2023-05-10T09:02:44;16.70;97.00
69082;DHT22;69029;51.986;5.760;2023-05-10T09:05:11;16.70;96.60
69082;DHT22;69029;51.986;5.760;2023-05-10T09:07:37;16.80;96.40
69082;DHT22;69029;51.986;5.760;2023-05-10T09:10:04;17.00;95.70
69082;DHT22;69029;51.986;5.760;2023-05-10T09:12:30;17.20;94.90
69082;DHT22;69029;51.986;5.760;2023-05-10T09:14:56;17.20;93.80
69082;DHT22;69029;51.986;5.760;2023-05-10T09:17:23;17.30;94.00
69082;DHT22;69029;51.986;5.760;2023-05-10T09:19:50;17.20;93.80
69082;DHT22;69029;51.986;5.760;2023-05-10T09:22:22;17.00;93.60
69082;DHT22;69029;51.986;5.760;2023-05-10T09:24:48;17.00;94.50
69082;DHT22;69029;51.986;5.760;2023-05-10T09:27:28;17.00;95.00
69082;DHT22;69029;51.986;5.760;2023-05-10T09:29:53;17.10;94.10
69082;DHT22;69029;51.986;5.760;2023-05-10T09:32:20;17.20;94.10
69082;DHT22;69029;51.986;5.760;2023-05-10T09:34:49;17.20;93.30
69082;DHT22;69029;51.986;5.760;2023-05-10T09:37:15;17.20;93.30
69082;DHT22;69029;51.986;5.760;2023-05-10T09:39:40;17.20;93.10
69082;DHT22;69029;51.986;5.760;2023-05-10T09:42:09;17.10;93.70
69082;DHT22;69029;51.986;5.760;2023-05-10T09:44:35;17.00;93.60
69082;DHT22;69029;51.986;5.760;2023-05-10T09:47:03;17.10;94.20
69082;DHT22;69029;51.986;5.760;2023-05-10T09:49:29;17.30;94.60
69082;DHT22;69029;51.986;5.760;2023-05-10T09:52:07;17.40;93.40
69082;DHT22;69029;51.986;5.760;2023-05-10T09:54:34;17.60;93.80
69082;DHT22;69029;51.986;5.760;2023-05-10T09:57:00;17.80;92.90
69082;DHT22;69029;51.986;5.760;2023-05-10T09:59:27;17.80;92.30
69082;DHT22;69029;51.986;5.760;2023-05-10T10:01:56;17.80;91.70
69082;DHT22;69029;51.986;5.760;2023-05-10T10:04:22;17.80;92.90
69082;DHT22;69029;51.986;5.760;2023-05-10T10:07:02;17.90;92.50
69082;DHT22;69029;51.986;5.760;2023-05-10T10:09:28;17.80;92.10
69082;DHT22;69029;51.986;5.760;2023-05-10T10:11:54;17.90;92.20
69082;DHT22;69029;51.986;5.760;2023-05-10T10:14:20;18.10;93.00
69082;DHT22;69029;51.986;5.760;2023-05-10T10:16:47;18.30;92.90
69082;DHT22;69029;51.986;5.760;2023-05-10T10:19:13;18.30;91.70
69082;DHT22;69029;51.986;5.760;2023-05-10T10:21:39;18.40;92.20
69082;DHT22;69029;51.986;5.760;2023-05-10T10:24:05;18.40;91.80
69082;DHT22;69029;51.986;5.760;2023-05-10T10:26:33;18.30;91.30
69082;DHT22;69029;51.986;5.760;2023-05-10T10:29:35;18.30;91.20
69082;DHT22;69029;51.986;5.760;2023-05-10T10:32:12;18.30;92.70
69082;DHT22;69029;51.986;5.760;2023-05-10T10:34:44;18.30;91.60
69082;DHT22;69029;51.986;5.760;2023-05-10T10:37:10;18.30;90.60
69082;DHT22;69029;51.986;5.760;2023-05-10T10:39:35;18.30;91.10
69082;DHT22;69029;51.986;5.760;2023-05-10T10:42:02;18.50;91.40
69082;DHT22;69029;51.986;5.760;2023-05-10T10:49:26;18.80;90.10
69082;DHT22;69029;51.986;5.760;2023-05-10T10:55:20;18.90;89.00
69082;DHT22;69029;51.986;5.760;2023-05-10T10:57:56;19.10;90.00
69082;DHT22;69029;51.986;5.760;2023-05-10T11:00:35;19.10;87.10
69082;DHT22;69029;51.986;5.760;2023-05-10T11:03:10;19.10;87.90
69082;DHT22;69029;51.986;5.760;2023-05-10T11:05:46;19.10;87.50
69082;DHT22;69029;51.986;5.760;2023-05-10T11:13:31;19.00;87.90
69082;DHT22;69029;51.986;5.760;2023-05-10T11:15:57;19.00;88.80
69082;DHT22;69029;51.986;5.760;2023-05-10T11:18:31;19.00;89.40
69082;DHT22;69029;51.986;5.760;2023-05-10T11:21:00;18.80;85.40
69082;DHT22;69029;51.986;5.760;2023-05-10T11:23:32;18.70;86.80
69082;DHT22;69029;51.986;5.760;2023-05-10T11:25:59;18.70;86.60
69082;DHT22;69029;51.986;5.760;2023-05-10T11:28:27;18.70;89.60
69082;DHT22;69029;51.986;5.760;2023-05-10T11:30:54;18.70;89.00
69082;DHT22;69029;51.986;5.760;2023-05-10T11:33:20;18.70;87.80
69082;DHT22;69029;51.986;5.760;2023-05-10T11:35:46;18.60;86.40
69082;DHT22;69029;51.986;5.760;2023-05-10T11:38:12;18.50;88.70
69082;DHT22;69029;51.986;5.760;2023-05-10T11:40:41;18.60;89.30
69082;DHT22;69029;51.986;5.760;2023-05-10T11:43:11;18.40;89.10
69082;DHT22;69029;51.986;5.760;2023-05-10T11:45:37;18.60;90.00
69082;DHT22;69029;51.986;5.760;2023-05-10T11:48:03;18.50;90.10
69082;DHT22;69029;51.986;5.760;2023-05-10T11:50:29;18.70;88.60
69082;DHT22;69029;51.986;5.760;2023-05-10T11:52:56;19.00;88.80
69082;DHT22;69029;51.986;5.760;2023-05-10T11:55:22;19.00;87.40
69082;DHT22;69029;51.986;5.760;2023-05-10T11:57:55;19.20;86.50
69082;DHT22;69029;51.986;5.760;2023-05-10T12:00:25;19.20;85.40
69082;DHT22;69029;51.986;5.760;2023-05-10T12:02:51;19.30;86.30
69082;DHT22;69029;51.986;5.760;2023-05-10T12:05:16;19.60;86.50
69082;DHT22;69029;51.986;5.760;2023-05-10T12:07:42;19.70;84.10
69082;DHT22;69029;51.986;5.760;2023-05-10T12:10:12;19.80;82.80
69082;DHT22;69029;51.986;5.760;2023-05-10T12:12:44;19.80;83.20
69082;DHT22;69029;51.986;5.760;2023-05-10T12:15:21;19.90;82.70
69082;DHT22;69029;51.986;5.760;2023-05-10T12:17:47;20.10;83.90
69082;DHT22;69029;51.986;5.760;2023-05-10T12:20:23;20.20;84.40
69082;DHT22;69029;51.986;5.760;2023-05-10T12:22:53;20.40;82.40
69082;DHT22;69029;51.986;5.760;2023-05-10T12:25:21;20.30;80.00
69082;DHT22;69029;51.986;5.760;2023-05-10T12:27:52;20.40;80.20
69082;DHT22;69029;51.986;5.760;2023-05-10T12:30:29;20.40;81.10
69082;DHT22;69029;51.986;5.760;2023-05-10T12:33:15;20.50;83.50
69082;DHT22;69029;51.986;5.760;2023-05-10T12:35:52;20.70;83.70
69082;DHT22;69029;51.986;5.760;2023-05-10T12:38:38;20.70;78.30
69082;DHT22;69029;51.986;5.760;2023-05-10T12:41:17;20.80;82.30
69082;DHT22;69029;51.986;5.760;2023-05-10T12:43:43;21.00;80.60
69082;DHT22;69029;51.986;5.760;2023-05-10T12:46:16;21.00;78.70
69082;DHT22;69029;51.986;5.760;2023-05-10T12:48:43;21.10;79.30
69082;DHT22;69029;51.986;5.760;2023-05-10T12:51:09;21.50;79.00
69082;DHT22;69029;51.986;5.760;2023-05-10T12:53:37;21.40;78.40
69082;DHT22;69029;51.986;5.760;2023-05-10T12:56:03;21.50;77.20
69082;DHT22;69029;51.986;5.760;2023-05-10T12:58:30;21.80;78.40
69082;DHT22;69029;51.986;5.760;2023-05-10T13:00:55;21.60;77.50
69082;DHT22;69029;51.986;5.760;2023-05-10T13:03:24;21.50;78.00
69082;DHT22;69029;51.986;5.760;2023-05-10T13:05:49;21.60;77.10
69082;DHT22;69029;51.986;5.760;2023-05-10T13:08:15;21.60;75.70
69082;DHT22;69029;51.986;5.760;2023-05-10T13:10:42;21.50;81.70
69082;DHT22;69029;51.986;5.760;2023-05-10T13:13:08;21.60;79.70
69082;DHT22;69029;51.986;5.760;2023-05-10T13:15:34;21.60;78.60
69082;DHT22;69029;51.986;5.760;2023-05-10T13:17:59;21.20;77.40
69082;DHT22;69029;51.986;5.760;2023-05-10T13:20:25;21.00;80.90
69082;DHT22;69029;51.986;5.760;2023-05-10T13:22:51;20.70;79.50
69082;DHT22;69029;51.986;5.760;2023-05-10T13:25:16;20.60;78.50
69082;DHT22;69029;51.986;5.760;2023-05-10T13:27:42;20.40;83.10
69082;DHT22;69029;51.986;5.760;2023-05-10T13:30:09;20.20;83.40
69082;DHT22;69029;51.986;5.760;2023-05-10T13:32:35;19.90;85.60
69082;DHT22;69029;51.986;5.760;2023-05-10T13:35:01;19.60;84.50
69082;DHT22;69029;51.986;5.760;2023-05-10T13:37:29;19.40;87.30
69082;DHT22;69029;51.986;5.760;2023-05-10T13:39:55;19.20;87.00
69082;DHT22;69029;51.986;5.760;2023-05-10T13:42:22;19.10;88.70
69082;DHT22;69029;51.986;5.760;2023-05-10T13:44:48;19.10;86.70
69082;DHT22;69029;51.986;5.760;2023-05-10T13:47:13;18.80;86.60
69082;DHT22;69029;51.986;5.760;2023-05-10T13:49:39;18.60;88.20
69082;DHT22;69029;51.986;5.760;2023-05-10T13:52:05;18.40;90.10
69082;DHT22;69029;51.986;5.760;2023-05-10T13:54:35;18.40;90.50
69082;DHT22;69029;51.986;5.760;2023-05-10T13:57:01;18.30;90.50
69082;DHT22;69029;51.986;5.760;2023-05-10T13:59:26;18.20;91.20
69082;DHT22;69029;51.986;5.760;2023-05-10T14:01:52;18.20;91.00
69082;DHT22;69029;51.986;5.760;2023-05-10T14:04:17;18.20;91.10
69082;DHT22;69029;51.986;5.760;2023-05-10T14:06:43;18.20;91.90
69082;DHT22;69029;51.986;5.760;2023-05-10T14:09:09;18.20;91.80
69082;DHT22;69029;51.986;5.760;2023-05-10T14:11:35;18.10;91.40
69082;DHT22;69029;51.986;5.760;2023-05-10T14:14:00;18.10;91.60
69082;DHT22;69029;51.986;5.760;2023-05-10T14:16:26;17.90;92.30
69082;DHT22;69029;51.986;5.760;2023-05-10T14:18:52;17.90;91.90
69082;DHT22;69029;51.986;5.760;2023-05-10T14:21:18;17.90;91.90
69082;DHT22;69029;51.986;5.760;2023-05-10T14:23:43;17.90;92.30
69082;DHT22;69029;51.986;5.760;2023-05-10T14:26:09;17.90;92.00
69082;DHT22;69029;51.986;5.760;2023-05-10T14:28:36;17.90;92.10
69082;DHT22;69029;51.986;5.760;2023-05-10T14:31:01;17.90;91.60
69082;DHT22;69029;51.986;5.760;2023-05-10T14:33:27;18.00;92.00
69082;DHT22;69029;51.986;5.760;2023-05-10T14:35:54;17.90;92.30
69082;DHT22;69029;51.986;5.760;2023-05-10T14:38:22;17.90;92.10
69082;DHT22;69029;51.986;5.760;2023-05-10T14:40:48;18.00;91.50
69082;DHT22;69029;51.986;5.760;2023-05-10T14:43:14;18.10;91.90
69082;DHT22;69029;51.986;5.760;2023-05-10T14:45:40;18.10;92.60
69082;DHT22;69029;51.986;5.760;2023-05-10T14:48:06;18.30;92.10
69082;DHT22;69029;51.986;5.760;2023-05-10T14:50:36;18.40;91.90
69082;DHT22;69029;51.986;5.760;2023-05-10T14:53:02;18.40;90.80
69082;DHT22;69029;51.986;5.760;2023-05-10T14:55:27;18.20;91.20
69082;DHT22;69029;51.986;5.760;2023-05-10T14:57:53;18.30;91.40
69082;DHT22;69029;51.986;5.760;2023-05-10T15:00:19;18.40;91.50
69082;DHT22;69029;51.986;5.760;2023-05-10T15:02:45;18.50;91.70
69082;DHT22;69029;51.986;5.760;2023-05-10T15:05:11;18.70;90.80
69082;DHT22;69029;51.986;5.760;2023-05-10T15:07:36;18.90;89.00
69082;DHT22;69029;51.986;5.760;2023-05-10T15:10:02;19.10;89.50
69082;DHT22;69029;51.986;5.760;2023-05-10T15:12:28;19.50;87.80
69082;DHT22;69029;51.986;5.760;2023-05-10T15:14:54;19.80;86.20
69082;DHT22;69029;51.986;5.760;2023-05-10T15:17:19;20.00;84.30
69082;DHT22;69029;51.986;5.760;2023-05-10T15:19:45;20.00;84.80
69082;DHT22;69029;51.986;5.760;2023-05-10T15:22:11;19.80;84.80
69082;DHT22;69029;51.986;5.760;2023-05-10T15:24:36;20.20;85.20
69082;DHT22;69029;51.986;5.760;2023-05-10T15:27:02;20.80;82.90
69082;DHT22;69029;51.986;5.760;2023-05-10T15:29:29;21.10;81.10
69082;DHT22;69029;51.986;5.760;2023-05-10T15:31:55;21.50;81.40
69082;DHT22;69029;51.986;5.760;2023-05-10T15:34:21;22.30;78.50
69082;DHT22;69029;51.986;5.760;2023-05-10T15:36:46;22.40;76.60
69082;DHT22;69029;51.986;5.760;2023-05-10T15:39:12;22.60;76.40
69082;DHT22;69029;51.986;5.760;2023-05-10T15:41:38;22.80;74.40
69082;DHT22;69029;51.986;5.760;2023-05-10T15:44:04;22.80;73.30
69082;DHT22;69029;51.986;5.760;2023-05-10T15:46:30;23.10;73.70
69082;DHT22;69029;51.986;5.760;2023-05-10T15:48:57;22.90;73.70
69082;DHT22;69029;51.986;5.760;2023-05-10T15:51:23;23.20;74.70
69082;DHT22;69029;51.986;5.760;2023-05-10T15:53:49;24.70;71.80
69082;DHT22;69029;51.986;5.760;2023-05-10T15:56:15;26.20;66.10
69082;DHT22;69029;51.986;5.760;2023-05-10T15:58:40;26.30;62.90
69082;DHT22;69029;51.986;5.760;2023-05-10T16:01:06;25.80;63.30
69082;DHT22;69029;51.986;5.760;2023-05-10T16:03:33;25.20;64.30
69082;DHT22;69029;51.986;5.760;2023-05-10T16:05:59;24.90;67.10